Valle Hermoso, Puerto Rico
Current Conditions -  °F | °C
As of 4:50 PM on Wednesday 22 Oct 2014 (Local Time) from TJBQ Reporting Station
Broken Clouds Broken Clouds  
Wind Chill: 82°   Ceiling: 3800
Heat Index: 89°   Visibility: 10mi
Dew Point: 75°   Wind: 10mph
Humidity: 79%   Direction: 50°NE
Pressure: 29.91"   Gusts: NA
Location:  18.1684°N, 67.1306°W
Report Text: TJBQ 222050Z 05009KT 10SM SCT021 SCT028 BKN038 28/24 A2991 RMK LTG DSNT SE- RWY 8 ATIS U
Loading
Personal Weather Stations






























Interactive Weather Map New forecast layout! Learn more

10-Day Weather Forecast

Advertisements
Track Severe Weather on mobile